Dulce, New Mexico
Current Conditions -  °F | °C
As of 9:55 PM on Monday 22 Dec 2014 (Local Time) from KPSO Reporting Station
Broken Clouds Broken Clouds  
Wind Chill: 18°   Ceiling: 10000
Heat Index: 24°   Visibility: 10mi
Dew Point: 15°   Wind: 5mph
Humidity: 68%   Direction: 10°N
Pressure: 29.85"   Gusts: NA
Location:  36.93°N, 107°W
Report Text: KPSO 230455Z AUTO 01004KT 10SM SCT080 BKN100 M04/M09 A2985 RMK AO2 T10431094
Loading
Personal Weather Stations






























Interactive Weather Map New forecast layout! Learn more

10-Day Weather Forecast

Advertisements
Track Severe Weather on mobile